sensor_id;sensor_type;location;lat;lon;timestamp;P1;durP1;ratioP1;P2;durP2;ratioP2
46907;SDS011;32655;53.452;9.976;2023-06-05T00:00:37;8.02;;;4.60;;
46907;SDS011;32655;53.452;9.976;2023-06-05T00:03:02;8.77;;;4.18;;
46907;SDS011;32655;53.452;9.976;2023-06-05T00:05:28;7.30;;;4.32;;
46907;SDS011;32655;53.452;9.976;2023-06-05T00:07:54;7.90;;;5.30;;
46907;SDS011;32655;53.452;9.976;2023-06-05T00:10:19;8.82;;;4.32;;
46907;SDS011;32655;53.452;9.976;2023-06-05T00:12:45;7.93;;;4.57;;
46907;SDS011;32655;53.452;9.976;2023-06-05T00:15:11;7.47;;;4.78;;
46907;SDS011;32655;53.452;9.976;2023-06-05T00:17:37;17.52;;;5.80;;
46907;SDS011;32655;53.452;9.976;2023-06-05T00:20:02;9.32;;;4.40;;
46907;SDS011;32655;53.452;9.976;2023-06-05T00:22:28;9.00;;;4.07;;
46907;SDS011;32655;53.452;9.976;2023-06-05T00:24:56;9.25;;;4.03;;
46907;SDS011;32655;53.452;9.976;2023-06-05T00:27:22;9.23;;;4.63;;
46907;SDS011;32655;53.452;9.976;2023-06-05T00:29:48;8.10;;;4.13;;
46907;SDS011;32655;53.452;9.976;2023-06-05T00:32:14;10.63;;;4.20;;
46907;SDS011;32655;53.452;9.976;2023-06-05T00:34:39;7.43;;;4.93;;
46907;SDS011;32655;53.452;9.976;2023-06-05T00:37:05;6.78;;;4.38;;
46907;SDS011;32655;53.452;9.976;2023-06-05T00:39:31;7.70;;;4.32;;
46907;SDS011;32655;53.452;9.976;2023-06-05T00:41:56;10.25;;;4.47;;
46907;SDS011;32655;53.452;9.976;2023-06-05T00:44:22;11.32;;;5.05;;
46907;SDS011;32655;53.452;9.976;2023-06-05T00:46:47;8.15;;;4.80;;
46907;SDS011;32655;53.452;9.976;2023-06-05T00:49:14;13.77;;;6.63;;
46907;SDS011;32655;53.452;9.976;2023-06-05T00:51:40;7.88;;;4.38;;
46907;SDS011;32655;53.452;9.976;2023-06-05T00:54:06;7.00;;;4.60;;
46907;SDS011;32655;53.452;9.976;2023-06-05T00:56:32;10.57;;;4.28;;
46907;SDS011;32655;53.452;9.976;2023-06-05T00:59:00;10.77;;;4.97;;
46907;SDS011;32655;53.452;9.976;2023-06-05T01:01:26;8.55;;;4.70;;
46907;SDS011;32655;53.452;9.976;2023-06-05T01:03:53;9.80;;;4.25;;
46907;SDS011;32655;53.452;9.976;2023-06-05T01:06:22;9.18;;;4.88;;
46907;SDS011;32655;53.452;9.976;2023-06-05T01:08:49;10.13;;;5.07;;
46907;SDS011;32655;53.452;9.976;2023-06-05T01:11:21;8.80;;;5.10;;
46907;SDS011;32655;53.452;9.976;2023-06-05T01:13:54;9.27;;;4.88;;
46907;SDS011;32655;53.452;9.976;2023-06-05T01:16:26;9.25;;;5.30;;
46907;SDS011;32655;53.452;9.976;2023-06-05T01:18:55;8.55;;;4.85;;
46907;SDS011;32655;53.452;9.976;2023-06-05T01:21:27;12.23;;;5.60;;
46907;SDS011;32655;53.452;9.976;2023-06-05T01:23:52;10.23;;;5.38;;
46907;SDS011;32655;53.452;9.976;2023-06-05T01:26:18;12.00;;;5.22;;
46907;SDS011;32655;53.452;9.976;2023-06-05T01:28:44;7.18;;;4.45;;
46907;SDS011;32655;53.452;9.976;2023-06-05T01:31:12;8.93;;;5.30;;
46907;SDS011;32655;53.452;9.976;2023-06-05T01:33:46;12.57;;;4.80;;
46907;SDS011;32655;53.452;9.976;2023-06-05T01:36:16;11.38;;;5.15;;
46907;SDS011;32655;53.452;9.976;2023-06-05T01:38:43;8.15;;;4.90;;
46907;SDS011;32655;53.452;9.976;2023-06-05T01:41:10;9.00;;;5.30;;
46907;SDS011;32655;53.452;9.976;2023-06-05T01:43:36;13.00;;;4.90;;
46907;SDS011;32655;53.452;9.976;2023-06-05T01:46:01;11.05;;;5.65;;
46907;SDS011;32655;53.452;9.976;2023-06-05T01:48:27;10.80;;;5.10;;
46907;SDS011;32655;53.452;9.976;2023-06-05T01:50:59;10.57;;;5.30;;
46907;SDS011;32655;53.452;9.976;2023-06-05T01:55:51;18.67;;;5.75;;
46907;SDS011;32655;53.452;9.976;2023-06-05T01:58:23;11.45;;;5.47;;
46907;SDS011;32655;53.452;9.976;2023-06-05T02:00:48;8.70;;;5.22;;
46907;SDS011;32655;53.452;9.976;2023-06-05T02:03:14;10.63;;;5.70;;
46907;SDS011;32655;53.452;9.976;2023-06-05T02:05:43;10.10;;;5.53;;
46907;SDS011;32655;53.452;9.976;2023-06-05T02:08:08;9.63;;;5.55;;
46907;SDS011;32655;53.452;9.976;2023-06-05T02:10:35;10.18;;;5.05;;
46907;SDS011;32655;53.452;9.976;2023-06-05T02:13:02;11.98;;;5.32;;
46907;SDS011;32655;53.452;9.976;2023-06-05T02:15:28;10.95;;;5.72;;
46907;SDS011;32655;53.452;9.976;2023-06-05T02:17:57;9.98;;;5.10;;
46907;SDS011;32655;53.452;9.976;2023-06-05T02:20:23;12.48;;;7.05;;
46907;SDS011;32655;53.452;9.976;2023-06-05T02:22:50;11.82;;;5.38;;
46907;SDS011;32655;53.452;9.976;2023-06-05T02:25:17;11.93;;;5.88;;
46907;SDS011;32655;53.452;9.976;2023-06-05T02:27:46;11.82;;;6.43;;
46907;SDS011;32655;53.452;9.976;2023-06-05T02:30:11;8.07;;;5.63;;
46907;SDS011;32655;53.452;9.976;2023-06-05T02:32:37;13.02;;;6.80;;
46907;SDS011;32655;53.452;9.976;2023-06-05T02:35:07;13.57;;;5.78;;
46907;SDS011;32655;53.452;9.976;2023-06-05T02:37:33;9.77;;;5.88;;
46907;SDS011;32655;53.452;9.976;2023-06-05T02:40:02;12.73;;;6.35;;
46907;SDS011;32655;53.452;9.976;2023-06-05T02:42:28;9.77;;;5.90;;
46907;SDS011;32655;53.452;9.976;2023-06-05T02:44:54;13.27;;;6.75;;
46907;SDS011;32655;53.452;9.976;2023-06-05T02:47:19;11.43;;;5.30;;
46907;SDS011;32655;53.452;9.976;2023-06-05T02:49:45;12.43;;;6.28;;
46907;SDS011;32655;53.452;9.976;2023-06-05T02:52:10;12.13;;;6.60;;
46907;SDS011;32655;53.452;9.976;2023-06-05T02:54:37;13.55;;;6.60;;
46907;SDS011;32655;53.452;9.976;2023-06-05T02:57:02;9.20;;;5.80;;
46907;SDS011;32655;53.452;9.976;2023-06-05T02:59:33;8.90;;;6.13;;
46907;SDS011;32655;53.452;9.976;2023-06-05T03:01:58;10.43;;;6.30;;
46907;SDS011;32655;53.452;9.976;2023-06-05T03:04:24;11.43;;;6.18;;
46907;SDS011;32655;53.452;9.976;2023-06-05T03:06:49;10.32;;;5.78;;
46907;SDS011;32655;53.452;9.976;2023-06-05T03:09:15;8.95;;;5.82;;
46907;SDS011;32655;53.452;9.976;2023-06-05T03:11:41;15.18;;;6.95;;
46907;SDS011;32655;53.452;9.976;2023-06-05T03:14:07;10.48;;;6.20;;
46907;SDS011;32655;53.452;9.976;2023-06-05T03:16:32;12.90;;;6.07;;
46907;SDS011;32655;53.452;9.976;2023-06-05T03:19:02;13.25;;;7.18;;
46907;SDS011;32655;53.452;9.976;2023-06-05T03:21:28;12.57;;;6.55;;
46907;SDS011;32655;53.452;9.976;2023-06-05T03:23:53;10.88;;;5.85;;
46907;SDS011;32655;53.452;9.976;2023-06-05T03:26:18;10.27;;;6.57;;
46907;SDS011;32655;53.452;9.976;2023-06-05T03:28:44;19.55;;;8.68;;
46907;SDS011;32655;53.452;9.976;2023-06-05T03:31:09;12.68;;;6.70;;
46907;SDS011;32655;53.452;9.976;2023-06-05T03:33:35;14.27;;;6.70;;
46907;SDS011;32655;53.452;9.976;2023-06-05T03:36:00;19.67;;;7.50;;
46907;SDS011;32655;53.452;9.976;2023-06-05T03:38:27;14.88;;;9.00;;
46907;SDS011;32655;53.452;9.976;2023-06-05T03:40:52;10.63;;;6.97;;
46907;SDS011;32655;53.452;9.976;2023-06-05T03:43:17;15.15;;;7.18;;
46907;SDS011;32655;53.452;9.976;2023-06-05T03:45:43;15.00;;;7.63;;
46907;SDS011;32655;53.452;9.976;2023-06-05T03:48:08;13.00;;;6.53;;
46907;SDS011;32655;53.452;9.976;2023-06-05T03:50:36;13.80;;;7.15;;
46907;SDS011;32655;53.452;9.976;2023-06-05T03:53:06;15.77;;;8.02;;
46907;SDS011;32655;53.452;9.976;2023-06-05T03:55:33;12.48;;;7.68;;
46907;SDS011;32655;53.452;9.976;2023-06-05T03:58:10;15.23;;;7.47;;
46907;SDS011;32655;53.452;9.976;2023-06-05T04:00:42;11.63;;;6.90;;
46907;SDS011;32655;53.452;9.976;2023-06-05T04:03:08;11.15;;;6.72;;
46907;SDS011;32655;53.452;9.976;2023-06-05T04:05:41;15.07;;;7.93;;
46907;SDS011;32655;53.452;9.976;2023-06-05T04:08:07;19.25;;;8.05;;
46907;SDS011;32655;53.452;9.976;2023-06-05T04:10:33;12.20;;;6.90;;
46907;SDS011;32655;53.452;9.976;2023-06-05T04:12:58;11.55;;;6.63;;
46907;SDS011;32655;53.452;9.976;2023-06-05T04:15:24;14.32;;;7.60;;
46907;SDS011;32655;53.452;9.976;2023-06-05T04:17:49;12.90;;;7.07;;
46907;SDS011;32655;53.452;9.976;2023-06-05T04:20:15;14.27;;;7.93;;
46907;SDS011;32655;53.452;9.976;2023-06-05T04:22:41;12.27;;;7.60;;
46907;SDS011;32655;53.452;9.976;2023-06-05T04:25:07;11.30;;;6.95;;
46907;SDS011;32655;53.452;9.976;2023-06-05T04:27:33;13.77;;;7.38;;
46907;SDS011;32655;53.452;9.976;2023-06-05T04:29:58;15.75;;;7.30;;
46907;SDS011;32655;53.452;9.976;2023-06-05T04:32:24;14.23;;;7.18;;
46907;SDS011;32655;53.452;9.976;2023-06-05T04:34:50;13.95;;;7.72;;
46907;SDS011;32655;53.452;9.976;2023-06-05T04:37:17;17.88;;;8.15;;
46907;SDS011;32655;53.452;9.976;2023-06-05T04:39:42;15.43;;;7.90;;
46907;SDS011;32655;53.452;9.976;2023-06-05T04:42:08;12.95;;;7.70;;
46907;SDS011;32655;53.452;9.976;2023-06-05T04:44:34;11.65;;;7.55;;
46907;SDS011;32655;53.452;9.976;2023-06-05T04:46:59;14.93;;;7.85;;
46907;SDS011;32655;53.452;9.976;2023-06-05T04:49:25;16.20;;;8.40;;
46907;SDS011;32655;53.452;9.976;2023-06-05T04:51:51;15.85;;;7.53;;
46907;SDS011;32655;53.452;9.976;2023-06-05T04:54:18;12.18;;;7.50;;
46907;SDS011;32655;53.452;9.976;2023-06-05T04:56:43;14.68;;;8.23;;
46907;SDS011;32655;53.452;9.976;2023-06-05T04:59:10;16.90;;;9.38;;
46907;SDS011;32655;53.452;9.976;2023-06-05T05:01:35;18.30;;;8.65;;
46907;SDS011;32655;53.452;9.976;2023-06-05T05:04:01;19.80;;;8.80;;
46907;SDS011;32655;53.452;9.976;2023-06-05T05:06:27;14.85;;;7.95;;
46907;SDS011;32655;53.452;9.976;2023-06-05T05:08:52;16.73;;;8.48;;
46907;SDS011;32655;53.452;9.976;2023-06-05T05:11:18;12.48;;;7.80;;
46907;SDS011;32655;53.452;9.976;2023-06-05T05:13:44;18.02;;;7.65;;
46907;SDS011;32655;53.452;9.976;2023-06-05T05:16:09;17.08;;;8.10;;
46907;SDS011;32655;53.452;9.976;2023-06-05T05:18:38;13.77;;;7.20;;
46907;SDS011;32655;53.452;9.976;2023-06-05T05:21:03;13.40;;;8.20;;
46907;SDS011;32655;53.452;9.976;2023-06-05T05:23:30;14.60;;;7.82;;
46907;SDS011;32655;53.452;9.976;2023-06-05T05:25:55;13.07;;;7.40;;
46907;SDS011;32655;53.452;9.976;2023-06-05T05:28:21;17.45;;;8.88;;
46907;SDS011;32655;53.452;9.976;2023-06-05T05:30:46;18.30;;;9.45;;
46907;SDS011;32655;53.452;9.976;2023-06-05T05:33:12;15.95;;;8.68;;
46907;SDS011;32655;53.452;9.976;2023-06-05T05:35:37;16.38;;;8.63;;
46907;SDS011;32655;53.452;9.976;2023-06-05T05:38:02;15.48;;;8.27;;
46907;SDS011;32655;53.452;9.976;2023-06-05T05:40:28;16.00;;;8.93;;
46907;SDS011;32655;53.452;9.976;2023-06-05T05:42:53;14.70;;;7.68;;
46907;SDS011;32655;53.452;9.976;2023-06-05T05:45:18;17.60;;;8.43;;
46907;SDS011;32655;53.452;9.976;2023-06-05T05:47:44;14.82;;;8.70;;
46907;SDS011;32655;53.452;9.976;2023-06-05T05:50:09;12.93;;;7.90;;
46907;SDS011;32655;53.452;9.976;2023-06-05T05:52:35;14.25;;;7.53;;
46907;SDS011;32655;53.452;9.976;2023-06-05T05:55:00;13.63;;;8.10;;
46907;SDS011;32655;53.452;9.976;2023-06-05T05:57:28;12.77;;;7.80;;
46907;SDS011;32655;53.452;9.976;2023-06-05T05:59:54;15.25;;;7.55;;
46907;SDS011;32655;53.452;9.976;2023-06-05T06:02:20;13.95;;;6.85;;
46907;SDS011;32655;53.452;9.976;2023-06-05T06:04:46;14.75;;;7.95;;
46907;SDS011;32655;53.452;9.976;2023-06-05T06:07:12;12.00;;;7.85;;
46907;SDS011;32655;53.452;9.976;2023-06-05T06:09:37;13.48;;;6.78;;
46907;SDS011;32655;53.452;9.976;2023-06-05T06:12:04;12.95;;;7.45;;
46907;SDS011;32655;53.452;9.976;2023-06-05T06:14:34;13.32;;;7.50;;
46907;SDS011;32655;53.452;9.976;2023-06-05T06:17:00;12.70;;;7.20;;
46907;SDS011;32655;53.452;9.976;2023-06-05T06:19:25;12.13;;;6.80;;
46907;SDS011;32655;53.452;9.976;2023-06-05T06:21:52;17.20;;;6.57;;
46907;SDS011;32655;53.452;9.976;2023-06-05T06:24:20;13.00;;;7.57;;
46907;SDS011;32655;53.452;9.976;2023-06-05T06:26:46;10.98;;;6.47;;
46907;SDS011;32655;53.452;9.976;2023-06-05T06:29:18;13.43;;;6.72;;
46907;SDS011;32655;53.452;9.976;2023-06-05T06:31:44;12.35;;;5.95;;
46907;SDS011;32655;53.452;9.976;2023-06-05T06:34:10;11.52;;;6.40;;
46907;SDS011;32655;53.452;9.976;2023-06-05T06:36:36;9.20;;;5.70;;
46907;SDS011;32655;53.452;9.976;2023-06-05T06:39:06;14.45;;;6.47;;
46907;SDS011;32655;53.452;9.976;2023-06-05T06:41:33;10.75;;;6.32;;
46907;SDS011;32655;53.452;9.976;2023-06-05T06:44:00;13.07;;;5.75;;
46907;SDS011;32655;53.452;9.976;2023-06-05T06:46:25;10.85;;;6.15;;
46907;SDS011;32655;53.452;9.976;2023-06-05T06:48:50;13.20;;;6.10;;
46907;SDS011;32655;53.452;9.976;2023-06-05T06:51:16;10.15;;;6.18;;
46907;SDS011;32655;53.452;9.976;2023-06-05T06:53:42;7.43;;;5.10;;
46907;SDS011;32655;53.452;9.976;2023-06-05T06:56:08;16.27;;;6.65;;
46907;SDS011;32655;53.452;9.976;2023-06-05T06:58:33;9.40;;;5.35;;
46907;SDS011;32655;53.452;9.976;2023-06-05T07:00:59;15.40;;;5.85;;
46907;SDS011;32655;53.452;9.976;2023-06-05T07:03:25;12.00;;;5.78;;
46907;SDS011;32655;53.452;9.976;2023-06-05T07:05:50;13.85;;;6.68;;
46907;SDS011;32655;53.452;9.976;2023-06-05T07:08:16;10.55;;;6.03;;
46907;SDS011;32655;53.452;9.976;2023-06-05T07:10:41;13.48;;;6.03;;
46907;SDS011;32655;53.452;9.976;2023-06-05T07:13:07;10.15;;;5.40;;
46907;SDS011;32655;53.452;9.976;2023-06-05T07:15:32;10.05;;;5.90;;
46907;SDS011;32655;53.452;9.976;2023-06-05T07:17:58;7.45;;;5.05;;
46907;SDS011;32655;53.452;9.976;2023-06-05T07:20:23;11.07;;;4.95;;
46907;SDS011;32655;53.452;9.976;2023-06-05T07:22:48;12.10;;;4.70;;
46907;SDS011;32655;53.452;9.976;2023-06-05T07:25:13;15.23;;;5.57;;
46907;SDS011;32655;53.452;9.976;2023-06-05T07:27:40;13.90;;;5.18;;
46907;SDS011;32655;53.452;9.976;2023-06-05T07:30:09;11.35;;;5.25;;
46907;SDS011;32655;53.452;9.976;2023-06-05T07:32:34;11.52;;;5.13;;
46907;SDS011;32655;53.452;9.976;2023-06-05T07:35:00;10.50;;;5.60;;
46907;SDS011;32655;53.452;9.976;2023-06-05T07:37:25;9.52;;;4.35;;
46907;SDS011;32655;53.452;9.976;2023-06-05T07:39:51;10.80;;;4.93;;
46907;SDS011;32655;53.452;9.976;2023-06-05T07:42:17;8.10;;;4.32;;
46907;SDS011;32655;53.452;9.976;2023-06-05T07:44:42;9.27;;;4.88;;
46907;SDS011;32655;53.452;9.976;2023-06-05T07:47:07;11.60;;;5.15;;
46907;SDS011;32655;53.452;9.976;2023-06-05T07:49:33;20.02;;;4.85;;
46907;SDS011;32655;53.452;9.976;2023-06-05T07:51:59;11.63;;;5.03;;
46907;SDS011;32655;53.452;9.976;2023-06-05T07:54:24;7.28;;;4.35;;
46907;SDS011;32655;53.452;9.976;2023-06-05T07:56:50;9.98;;;4.85;;
46907;SDS011;32655;53.452;9.976;2023-06-05T07:59:19;9.15;;;4.22;;
46907;SDS011;32655;53.452;9.976;2023-06-05T08:01:49;8.00;;;4.20;;
46907;SDS011;32655;53.452;9.976;2023-06-05T08:04:16;6.93;;;3.47;;
46907;SDS011;32655;53.452;9.976;2023-06-05T08:06:42;7.70;;;3.60;;
46907;SDS011;32655;53.452;9.976;2023-06-05T08:09:08;20.42;;;5.35;;
46907;SDS011;32655;53.452;9.976;2023-06-05T08:11:37;9.95;;;3.60;;
46907;SDS011;32655;53.452;9.976;2023-06-05T08:14:04;7.97;;;3.75;;
46907;SDS011;32655;53.452;9.976;2023-06-05T08:16:30;9.60;;;4.25;;
46907;SDS011;32655;53.452;9.976;2023-06-05T08:18:56;6.20;;;3.55;;
46907;SDS011;32655;53.452;9.976;2023-06-05T08:21:22;8.18;;;3.35;;
46907;SDS011;32655;53.452;9.976;2023-06-05T08:23:47;7.55;;;3.33;;
46907;SDS011;32655;53.452;9.976;2023-06-05T08:26:12;5.57;;;3.28;;
46907;SDS011;32655;53.452;9.976;2023-06-05T08:28:38;5.57;;;3.05;;
46907;SDS011;32655;53.452;9.976;2023-06-05T08:31:04;6.95;;;3.67;;
46907;SDS011;32655;53.452;9.976;2023-06-05T08:33:31;7.25;;;3.00;;
46907;SDS011;32655;53.452;9.976;2023-06-05T08:35:59;7.97;;;3.40;;
46907;SDS011;32655;53.452;9.976;2023-06-05T08:38:26;6.38;;;2.95;;
46907;SDS011;32655;53.452;9.976;2023-06-05T08:40:55;6.28;;;3.95;;
46907;SDS011;32655;53.452;9.976;2023-06-05T08:43:23;9.90;;;3.67;;
46907;SDS011;32655;53.452;9.976;2023-06-05T08:45:50;7.20;;;3.40;;
46907;SDS011;32655;53.452;9.976;2023-06-05T08:48:16;6.93;;;3.33;;
46907;SDS011;32655;53.452;9.976;2023-06-05T08:50:43;7.03;;;2.72;;
46907;SDS011;32655;53.452;9.976;2023-06-05T08:53:09;7.55;;;3.60;;
46907;SDS011;32655;53.452;9.976;2023-06-05T08:55:34;5.55;;;3.38;;
46907;SDS011;32655;53.452;9.976;2023-06-05T08:57:59;4.68;;;2.83;;
46907;SDS011;32655;53.452;9.976;2023-06-05T09:00:25;5.43;;;3.08;;
46907;SDS011;32655;53.452;9.976;2023-06-05T09:02:51;5.95;;;3.13;;
46907;SDS011;32655;53.452;9.976;2023-06-05T09:05:16;6.90;;;3.17;;
46907;SDS011;32655;53.452;9.976;2023-06-05T09:07:42;6.43;;;3.40;;
46907;SDS011;32655;53.452;9.976;2023-06-05T09:10:24;6.35;;;3.10;;
46907;SDS011;32655;53.452;9.976;2023-06-05T09:12:55;6.00;;;3.63;;
46907;SDS011;32655;53.452;9.976;2023-06-05T09:15:24;7.07;;;3.13;;
46907;SDS011;32655;53.452;9.976;2023-06-05T09:18:02;6.85;;;3.03;;
46907;SDS011;32655;53.452;9.976;2023-06-05T09:20:38;5.38;;;2.75;;
46907;SDS011;32655;53.452;9.976;2023-06-05T09:23:21;5.68;;;3.28;;
46907;SDS011;32655;53.452;9.976;2023-06-05T09:25:55;5.70;;;3.15;;
46907;SDS011;32655;53.452;9.976;2023-06-05T09:28:22;8.40;;;3.67;;
46907;SDS011;32655;53.452;9.976;2023-06-05T09:30:54;7.53;;;3.35;;
46907;SDS011;32655;53.452;9.976;2023-06-05T09:33:24;15.30;;;3.78;;
46907;SDS011;32655;53.452;9.976;2023-06-05T09:36:12;7.13;;;3.42;;
46907;SDS011;32655;53.452;9.976;2023-06-05T09:38:39;4.80;;;2.90;;
46907;SDS011;32655;53.452;9.976;2023-06-05T09:41:08;4.28;;;3.33;;
46907;SDS011;32655;53.452;9.976;2023-06-05T09:43:36;5.38;;;2.83;;
46907;SDS011;32655;53.452;9.976;2023-06-05T09:46:12;5.75;;;3.20;;
46907;SDS011;32655;53.452;9.976;2023-06-05T09:48:38;6.57;;;3.00;;
46907;SDS011;32655;53.452;9.976;2023-06-05T09:51:10;5.65;;;3.13;;
46907;SDS011;32655;53.452;9.976;2023-06-05T09:53:43;6.88;;;3.40;;
46907;SDS011;32655;53.452;9.976;2023-06-05T09:56:13;4.68;;;2.75;;
46907;SDS011;32655;53.452;9.976;2023-06-05T09:58:50;5.07;;;2.95;;
46907;SDS011;32655;53.452;9.976;2023-06-05T10:01:17;8.27;;;3.50;;
46907;SDS011;32655;53.452;9.976;2023-06-05T10:03:48;8.70;;;3.55;;
46907;SDS011;32655;53.452;9.976;2023-06-05T10:06:21;6.38;;;3.80;;
46907;SDS011;32655;53.452;9.976;2023-06-05T10:08:49;9.07;;;3.45;;
46907;SDS011;32655;53.452;9.976;2023-06-05T10:11:17;6.28;;;3.25;;
46907;SDS011;32655;53.452;9.976;2023-06-05T10:13:44;5.25;;;3.10;;
46907;SDS011;32655;53.452;9.976;2023-06-05T10:16:10;6.00;;;3.17;;
46907;SDS011;32655;53.452;9.976;2023-06-05T10:18:35;6.07;;;3.40;;
46907;SDS011;32655;53.452;9.976;2023-06-05T10:21:01;7.38;;;3.17;;
46907;SDS011;32655;53.452;9.976;2023-06-05T10:23:27;8.15;;;3.45;;
46907;SDS011;32655;53.452;9.976;2023-06-05T10:25:53;8.25;;;3.28;;
46907;SDS011;32655;53.452;9.976;2023-06-05T10:28:56;5.75;;;2.90;;
46907;SDS011;32655;53.452;9.976;2023-06-05T10:37:18;10.25;;;3.05;;
46907;SDS011;32655;53.452;9.976;2023-06-05T10:39:25;6.72;;;3.53;;
46907;SDS011;32655;53.452;9.976;2023-06-05T10:41:51;5.22;;;2.72;;
46907;SDS011;32655;53.452;9.976;2023-06-05T10:44:16;6.38;;;3.53;;
46907;SDS011;32655;53.452;9.976;2023-06-05T10:46:41;5.97;;;3.20;;
46907;SDS011;32655;53.452;9.976;2023-06-05T10:51:36;5.10;;;3.40;;
46907;SDS011;32655;53.452;9.976;2023-06-05T10:54:07;9.73;;;3.80;;
46907;SDS011;32655;53.452;9.976;2023-06-05T10:59:28;4.78;;;2.95;;
46907;SDS011;32655;53.452;9.976;2023-06-05T11:02:40;4.35;;;3.00;;
46907;SDS011;32655;53.452;9.976;2023-06-05T11:07:41;11.50;;;3.95;;
46907;SDS011;32655;53.452;9.976;2023-06-05T11:15:04;8.95;;;3.20;;
46907;SDS011;32655;53.452;9.976;2023-06-05T11:17:31;7.57;;;3.30;;
46907;SDS011;32655;53.452;9.976;2023-06-05T11:19:58;4.35;;;2.95;;
46907;SDS011;32655;53.452;9.976;2023-06-05T11:22:24;9.27;;;3.00;;
46907;SDS011;32655;53.452;9.976;2023-06-05T11:30:26;4.80;;;2.60;;
46907;SDS011;32655;53.452;9.976;2023-06-05T11:32:56;5.65;;;2.83;;
46907;SDS011;32655;53.452;9.976;2023-06-05T11:35:26;8.02;;;2.80;;
46907;SDS011;32655;53.452;9.976;2023-06-05T11:40:44;4.77;;;2.87;;
46907;SDS011;32655;53.452;9.976;2023-06-05T11:43:11;9.63;;;3.05;;
46907;SDS011;32655;53.452;9.976;2023-06-05T11:45:37;5.95;;;3.00;;
46907;SDS011;32655;53.452;9.976;2023-06-05T11:48:04;5.97;;;2.60;;
46907;SDS011;32655;53.452;9.976;2023-06-05T11:50:37;8.20;;;3.03;;
46907;SDS011;32655;53.452;9.976;2023-06-05T11:53:07;9.02;;;3.03;;
46907;SDS011;32655;53.452;9.976;2023-06-05T11:55:33;8.15;;;3.03;;
46907;SDS011;32655;53.452;9.976;2023-06-05T11:58:20;6.03;;;2.50;;
46907;SDS011;32655;53.452;9.976;2023-06-05T12:03:45;4.05;;;2.70;;
46907;SDS011;32655;53.452;9.976;2023-06-05T12:06:11;7.18;;;2.60;;
46907;SDS011;32655;53.452;9.976;2023-06-05T12:08:38;5.72;;;3.05;;
46907;SDS011;32655;53.452;9.976;2023-06-05T12:11:18;6.97;;;2.97;;
46907;SDS011;32655;53.452;9.976;2023-06-05T12:13:48;5.60;;;2.60;;
46907;SDS011;32655;53.452;9.976;2023-06-05T12:16:15;8.43;;;3.07;;
46907;SDS011;32655;53.452;9.976;2023-06-05T12:18:43;5.90;;;2.92;;
46907;SDS011;32655;53.452;9.976;2023-06-05T12:21:19;3.80;;;2.70;;
46907;SDS011;32655;53.452;9.976;2023-06-05T12:23:45;7.00;;;3.15;;
46907;SDS011;32655;53.452;9.976;2023-06-05T12:26:10;7.72;;;2.67;;
46907;SDS011;32655;53.452;9.976;2023-06-05T12:28:36;6.75;;;2.95;;
46907;SDS011;32655;53.452;9.976;2023-06-05T12:31:02;4.30;;;2.55;;
46907;SDS011;32655;53.452;9.976;2023-06-05T12:33:27;4.05;;;2.90;;
46907;SDS011;32655;53.452;9.976;2023-06-05T12:38:29;4.32;;;2.85;;
46907;SDS011;32655;53.452;9.976;2023-06-05T12:40:54;5.55;;;2.58;;
46907;SDS011;32655;53.452;9.976;2023-06-05T12:43:20;4.90;;;2.83;;
46907;SDS011;32655;53.452;9.976;2023-06-05T12:45:45;7.75;;;2.53;;
46907;SDS011;32655;53.452;9.976;2023-06-05T12:48:11;10.82;;;2.83;;
46907;SDS011;32655;53.452;9.976;2023-06-05T12:50:38;6.65;;;3.10;;
46907;SDS011;32655;53.452;9.976;2023-06-05T12:53:06;5.93;;;2.70;;
46907;SDS011;32655;53.452;9.976;2023-06-05T12:55:32;8.88;;;2.85;;
46907;SDS011;32655;53.452;9.976;2023-06-05T12:57:57;8.57;;;3.20;;
46907;SDS011;32655;53.452;9.976;2023-06-05T13:00:22;4.53;;;2.47;;
46907;SDS011;32655;53.452;9.976;2023-06-05T13:02:48;6.57;;;2.80;;
46907;SDS011;32655;53.452;9.976;2023-06-05T13:05:16;5.22;;;2.67;;
46907;SDS011;32655;53.452;9.976;2023-06-05T13:07:42;4.35;;;3.13;;
46907;SDS011;32655;53.452;9.976;2023-06-05T13:10:08;5.65;;;2.80;;
46907;SDS011;32655;53.452;9.976;2023-06-05T13:12:36;5.68;;;2.60;;
46907;SDS011;32655;53.452;9.976;2023-06-05T13:15:01;7.75;;;2.60;;
46907;SDS011;32655;53.452;9.976;2023-06-05T13:17:28;5.97;;;2.90;;
46907;SDS011;32655;53.452;9.976;2023-06-05T13:19:58;5.82;;;2.70;;
46907;SDS011;32655;53.452;9.976;2023-06-05T13:22:23;6.20;;;2.83;;
46907;SDS011;32655;53.452;9.976;2023-06-05T13:24:48;5.18;;;2.88;;
46907;SDS011;32655;53.452;9.976;2023-06-05T13:27:14;6.40;;;3.25;;
46907;SDS011;32655;53.452;9.976;2023-06-05T13:29:41;5.32;;;2.72;;
46907;SDS011;32655;53.452;9.976;2023-06-05T13:32:07;5.55;;;3.13;;
46907;SDS011;32655;53.452;9.976;2023-06-05T13:34:32;5.90;;;2.92;;
46907;SDS011;32655;53.452;9.976;2023-06-05T13:36:58;4.15;;;2.35;;
46907;SDS011;32655;53.452;9.976;2023-06-05T13:39:24;4.50;;;2.92;;
46907;SDS011;32655;53.452;9.976;2023-06-05T13:41:49;5.03;;;2.97;;
46907;SDS011;32655;53.452;9.976;2023-06-05T13:44:15;6.93;;;3.03;;
46907;SDS011;32655;53.452;9.976;2023-06-05T13:46:41;6.15;;;3.63;;
46907;SDS011;32655;53.452;9.976;2023-06-05T13:49:08;6.85;;;2.72;;
46907;SDS011;32655;53.452;9.976;2023-06-05T13:51:34;5.65;;;3.00;;
46907;SDS011;32655;53.452;9.976;2023-06-05T13:54:00;4.07;;;2.72;;
46907;SDS011;32655;53.452;9.976;2023-06-05T13:56:25;6.22;;;3.22;;
46907;SDS011;32655;53.452;9.976;2023-06-05T13:58:51;6.93;;;2.90;;
46907;SDS011;32655;53.452;9.976;2023-06-05T14:01:17;3.70;;;2.75;;
46907;SDS011;32655;53.452;9.976;2023-06-05T14:03:42;7.03;;;2.83;;
46907;SDS011;32655;53.452;9.976;2023-06-05T14:06:07;4.63;;;3.00;;
46907;SDS011;32655;53.452;9.976;2023-06-05T14:08:33;5.35;;;3.38;;
46907;SDS011;32655;53.452;9.976;2023-06-05T14:10:58;5.30;;;3.08;;
46907;SDS011;32655;53.452;9.976;2023-06-05T14:13:24;3.70;;;2.53;;
46907;SDS011;32655;53.452;9.976;2023-06-05T14:15:49;5.82;;;3.30;;
46907;SDS011;32655;53.452;9.976;2023-06-05T14:18:15;6.05;;;2.90;;
46907;SDS011;32655;53.452;9.976;2023-06-05T14:20:40;3.80;;;2.60;;
46907;SDS011;32655;53.452;9.976;2023-06-05T14:23:06;4.57;;;2.70;;
46907;SDS011;32655;53.452;9.976;2023-06-05T14:25:31;6.38;;;3.75;;
46907;SDS011;32655;53.452;9.976;2023-06-05T14:27:57;8.25;;;3.45;;
46907;SDS011;32655;53.452;9.976;2023-06-05T14:30:22;5.47;;;3.05;;
46907;SDS011;32655;53.452;9.976;2023-06-05T14:32:48;6.10;;;2.83;;
46907;SDS011;32655;53.452;9.976;2023-06-05T14:35:14;7.10;;;2.63;;
46907;SDS011;32655;53.452;9.976;2023-06-05T14:37:41;7.25;;;3.00;;
46907;SDS011;32655;53.452;9.976;2023-06-05T14:40:07;4.82;;;2.55;;
46907;SDS011;32655;53.452;9.976;2023-06-05T14:42:33;6.07;;;2.60;;
46907;SDS011;32655;53.452;9.976;2023-06-05T14:44:58;8.00;;;2.88;;
46907;SDS011;32655;53.452;9.976;2023-06-05T14:47:23;4.57;;;2.70;;
46907;SDS011;32655;53.452;9.976;2023-06-05T14:49:49;7.43;;;2.80;;
46907;SDS011;32655;53.452;9.976;2023-06-05T14:52:14;5.07;;;2.95;;
46907;SDS011;32655;53.452;9.976;2023-06-05T14:54:40;5.25;;;2.72;;
46907;SDS011;32655;53.452;9.976;2023-06-05T14:57:05;4.43;;;2.80;;
46907;SDS011;32655;53.452;9.976;2023-06-05T14:59:32;7.13;;;3.33;;
46907;SDS011;32655;53.452;9.976;2023-06-05T15:02:00;3.75;;;2.70;;
46907;SDS011;32655;53.452;9.976;2023-06-05T15:04:26;10.43;;;3.50;;
46907;SDS011;32655;53.452;9.976;2023-06-05T15:06:52;9.70;;;3.08;;
46907;SDS011;32655;53.452;9.976;2023-06-05T15:09:18;8.18;;;3.00;;
46907;SDS011;32655;53.452;9.976;2023-06-05T15:11:44;7.20;;;2.92;;
46907;SDS011;32655;53.452;9.976;2023-06-05T15:14:09;5.32;;;3.03;;
46907;SDS011;32655;53.452;9.976;2023-06-05T15:16:35;4.70;;;2.58;;